Atlantic - Newfoundland: Past 24 Hour Conditions

 

Banquereau - 44139

02:00 PM ADT 29 April 2016Buoy position: 44.27N 57.08W
Disclaimer

This table is a summary of hourly weather conditions for the past 24 hours.
Please note that these observations might not always be representative of weather conditions over their associated marine area.

Date / Time
(ADT)
Wind(knots) Wave height(m) Wave period(s) Pressure(kPa) Air tempC) Water tempC)
29 April 2016
14:00 W 16 gust 19 2.3 9.0 102.1 3 6
13:00 W 16 gust 19 2.2 10.0 102.1 3 6
12:00 W 16 gust 21 2.5 10.0 102.1 3 6
11:00 W 18 gust 21 2.5 8.0 102.1 3 6
10:00 W 18 gust 23 2.5 9.0 102.1 2 6
9:00 W 18 gust 21 2.5 10.0 102.1 2 6
8:00 WNW 16 gust 21 3.0 9.0 102.0 2 6
7:00 WNW 18 gust 21 2.9 8.0 101.9 2 6
6:00 WNW 16 gust 19 3.1 8.0 101.9 2 6
5:00 WNW 18 gust 21 3.2 9.0 101.8 2 6
4:00 WNW 19 gust 25 3.0 8.0 101.8 1 6
3:00 WNW 21 gust 27 3.1 9.0 101.8 1 6
2:00 WNW 21 gust 29 3.0 8.0 101.8 2 6
1:00 W 21 gust 25 2.9 7.0 101.8 1 6
0:00 W 21 gust 27 2.7 10.0 101.8 2 6
28 April 2016
23:00 W 21 gust 27 2.5 10.0 101.7 2 6
22:00 W 19 gust 25 2.4 10.0 101.7 2 6
21:00 W 19 gust 25 2.3 10.0 101.6 2 6
20:00 WNW 16 gust 19 2.3 11.0 101.5 2 6
19:00 NW 18 gust 23 2.3 10.0 101.4 2 7
18:00 NW 21 gust 25 2.4 11.0 101.3 2 7
17:00 W 23 gust 29 2.7 10.0 101.1 4 6
16:00 W 23 gust 27 2.3 9.0 101.0 5 7
15:00 W 19 gust 27 2.3 10.0 101.0 5 7
14:00 W 19 gust 23 2.7 10.0 100.9 5 7

Zoom-in to make a selection

Map of Atlantic - Newfoundland marine weather areas Southwestern Grand Banks - 44138 Banquereau - 44139 Tail of the Bank - 44140 Nickerson Bank - 44251 Northeast Burgeo Bank - 44255 Blanc-Sablon Airport Cap Whittle Chevery Natashquan Airport Heath Point Miscou Island Grand Étang Ingonish Beach North Mountain St.Paul Island J.A. Douglas McCurdy Sydney Airport Charlottetown Airport East Point North Cape Argentia Bonavista Burgeo Cape Race Corner Brook Daniel's Harbour Englee Ferolle Point La Scie Port aux Basques Rocky Harbour Sagona Island St. Anthony Airport St. John's Int'l Airport St. Lawrence Stephenville Airport Twillingate Winterland Wreckhouse Cartwright Airport Mary's Harbour Grates Cove Pool's Island Marticot Island Long Pond Eskasoni (First Nations) Îles de la Madeleine Airport
Legend:
buoy Buoy
land station Land Station

Atlantic - Newfoundland Area

Another Region

What we are doing

Date modified: